Olden, Texas
Current Conditions -  °F | °C
As of 3:35 PM on Friday 19 Dec 2014 (Local Time) from KBKD Reporting Station
Overcast Overcast  
Wind Chill: 48°   Ceiling: 1700
Heat Index: 50°   Visibility: 10mi
Dew Point: 41°   Wind: 6mph
Humidity: 72%   Direction: 340°NNW
Pressure: 30.16"   Gusts: NA
Location:  32.42°N, 98.75°W
Report Text: KBKD 192135Z AUTO 34005KT 10SM OVC017 10/05 A3016 RMK AO2 T00990051
Loading
Personal Weather Stations






























Interactive Weather Map New forecast layout! Learn more

10-Day Weather Forecast

Advertisements
Track Severe Weather on mobile